Latest Weather Observations for Scone Airport

IDN60801

Issued at 9:35 pm EST Tuesday 2 September 2014 (issued every 30 minutes, with the page automatically refreshed every 10 minutes)

About weather observations | Map of weather stations | Latest weather observations for NSW | Other Formats
Station Details ID: 061363 Name: SCONE AIRPORT AWS Lat: -32.03 Lon: 150.83 Height: 221.4 m
Data from the previous 72 hours. | See also: Recent months at Scone Airport
Date/Time
EST
Temp
°C
App
Temp
°C
Dew
Point
Rel
Hum
%
Delta-T
°C
Wind Press
QNH
hPa
Press
MSL
hPa
Rain
since 9 am
mm
Dir
 
Spd
km/h
Gust
km/h
Spd
kts
Gust
kts
02/09:30pm 8.9 6.8 5.6 80 1.5 NNE 6 9 3 5 1012.7 - 7.4
02/09:00pm 9.0 6.3 5.6 79 1.6 N 9 11 5 6 1012.9 1012.6 7.4
02/08:30pm 9.0 5.5 5.4 78 1.6 WSW 13 22 7 12 1013.5 - 7.4
02/08:00pm 9.8 4.4 4.4 69 2.4 W 22 32 12 17 1013.1 - 6.8
02/07:30pm 10.3 4.8 3.8 64 2.9 W 22 33 12 18 1012.9 - 6.4
02/07:00pm 10.2 2.8 3.9 65 2.8 W 32 44 17 24 1012.4 - 6.4
02/06:30pm 10.0 3.5 4.6 69 2.4 W 28 50 15 27 1011.9 - 6.4
02/06:04pm 11.0 2.7 4.2 63 3.1 WSW 37 56 20 30 1011.7 - 6.4
02/06:00pm 11.1 2.4 4.1 62 3.2 WSW 39 56 21 30 1011.6 1011.4 6.4
02/05:30pm 13.8 6.9 2.4 46 5.1 W 28 39 15 21 1010.5 - 6.0
02/05:00pm 14.4 7.8 2.3 44 5.4 W 26 39 14 21 1009.9 - 6.0
02/04:30pm 15.3 7.6 2.1 41 5.9 W 32 50 17 27 1009.4 - 6.0
02/04:27pm 15.3 7.5 1.8 40 6.0 W 32 50 17 27 1009.3 - 6.0
02/04:00pm 15.9 8.0 2.0 39 6.3 W 33 46 18 25 1009.1 - 6.0
02/03:30pm 15.0 7.7 2.2 42 5.7 WSW 30 44 16 24 1009.0 - 6.0
02/03:00pm 14.5 7.8 3.6 48 5.0 SW 28 44 15 24 1008.9 1008.6 6.0
02/02:30pm 15.6 8.4 5.2 50 5.0 W 32 43 17 23 1008.8 - 6.0
02/02:00pm 14.9 10.0 7.0 59 3.9 WSW 22 32 12 17 1009.0 - 6.0
02/01:30pm 15.5 9.5 7.0 57 4.2 W 28 41 15 22 1009.1 - 6.0
02/01:00pm 14.5 10.7 9.7 73 2.5 W 20 28 11 15 1009.5 - 6.0
02/12:30pm 13.6 11.3 10.4 81 1.7 NW 13 17 7 9 1009.9 - 6.0
02/12:00pm 11.2 9.1 9.6 90 0.8 WNW 11 17 6 9 1010.3 1010.1 5.8
02/11:30am 10.3 7.0 9.4 94 0.5 NW 17 26 9 14 1010.3 - 5.6
02/11:21am 10.2 6.4 9.0 92 0.6 WNW 19 44 10 24 1010.4 - 5.2
02/11:00am 10.8 3.5 8.6 86 1.1 W 37 52 20 28 1010.3 - 2.4
02/10:52am 11.1 3.0 8.5 84 1.3 W 41 59 22 32 1010.3 - 1.8
02/10:47am 12.5 4.9 7.6 72 2.4 W 37 52 20 28 1010.2 - 0.6
02/10:30am 15.5 13.6 7.5 59 4.0 WNW 7 11 4 6 1009.6 - 0.0
02/10:00am 15.6 11.5 8.6 63 3.6 W 20 28 11 15 1010.0 - 0.0
02/09:30am 15.8 12.6 6.8 55 4.5 WNW 13 20 7 11 1010.3 - 0.0
02/09:00am 14.8 10.5 7.1 60 3.8 WNW 19 24 10 13 1010.8 1010.6 0.0
02/08:30am 14.8 12.3 6.6 58 4.0 NNW 9 15 5 8 1011.1 - 0.0
02/08:00am 15.1 12.7 7.2 59 3.9 NW 9 15 5 8 1011.2 - 0.0
02/07:30am 14.1 12.2 6.7 61 3.6 N 6 13 3 7 1011.3 - 0.0
02/07:00am 13.8 10.8 5.9 59 3.8 WNW 11 15 6 8 1011.5 - 0.0
02/06:30am 13.9 9.3 5.8 58 3.9 WNW 19 26 10 14 1011.3 - 0.0
02/06:00am 14.5 8.9 5.3 54 4.4 WNW 24 37 13 20 1010.8 1010.6 0.0
02/05:30am 15.1 7.8 4.5 49 5.0 W 32 46 17 25 1010.4 - 0.0
02/05:21am 14.9 8.3 4.3 49 5.0 W 28 43 15 23 1010.2 - 0.0
02/05:00am 12.0 10.5 5.0 62 3.3 W 2 7 1 4 1009.8 - 0.0
02/04:30am 14.8 11.5 4.5 50 4.8 NW 11 17 6 9 1009.3 - 0.0
02/04:00am 13.9 10.7 5.3 56 4.1 WNW 11 15 6 8 1008.9 - 0.0
02/03:30am 12.4 10.6 5.6 63 3.2 NNW 4 7 2 4 1009.1 - 0.0
02/03:00am 10.8 8.6 6.0 72 2.3 NNW 7 9 4 5 1009.4 1009.2 0.0
02/02:30am 11.8 10.4 5.7 66 2.9 WSW 2 7 1 4 1009.7 - 0.0
02/02:00am 10.9 8.8 6.5 74 2.1 NNE 7 9 4 5 1010.1 - 0.0
02/01:30am 10.4 9.8 7.3 81 1.5 CALM 0 0 0 0 1010.8 - 0.0
02/01:00am 11.7 9.8 6.8 72 2.4 WNW 6 9 3 5 1011.2 - 0.0
02/12:30am 10.5 8.7 7.2 80 1.6 W 6 9 3 5 1011.6 - 0.0
02/12:00am 11.3 10.6 6.8 74 2.2 NNE 0 0 0 0 1011.8 1011.6 0.0
 
Date/Time
EST
Temp
°C
App
Temp
°C
Dew
Point
Rel
Hum
%
Delta-T
°C
Wind Press
QNH
hPa
Press
MSL
hPa
Rain
since 9 am
mm
Dir
 
Spd
km/h
Gust
km/h
Spd
kts
Gust
kts
01/11:30pm 12.3 10.3 7.2 71 2.5 NE 7 11 4 6 1012.2 - 0.0
01/11:00pm 12.8 10.8 7.3 69 2.7 NE 7 9 4 5 1012.6 - 0.0
01/10:30pm 12.2 10.6 7.9 75 2.1 SE 6 11 3 6 1012.8 - 0.0
01/10:00pm 12.3 11.8 8.0 75 2.1 CALM 0 0 0 0 1013.1 - 0.0
01/09:30pm 12.2 11.2 7.5 73 2.3 E 2 6 1 3 1013.3 - 0.0
01/09:00pm 14.5 12.4 6.8 60 3.8 N 7 7 4 4 1013.3 1013.1 0.0
01/08:30pm 15.3 13.3 7.1 58 4.1 WNW 7 11 4 6 1013.5 - 0.0
01/08:00pm 15.5 13.1 7.0 57 4.2 NNW 9 13 5 7 1013.4 - 0.0
01/07:30pm 14.9 12.5 7.0 59 3.9 NNW 9 11 5 6 1013.2 - 0.0
01/07:00pm 14.9 12.9 7.2 60 3.8 NNW 7 11 4 6 1013.1 - 0.0
01/06:30pm 15.0 12.8 6.0 55 4.4 N 7 13 4 7 1012.8 - 0.0
01/06:00pm 17.2 14.7 6.4 49 5.4 N 9 11 5 6 1012.6 1012.3 0.0
01/05:30pm 18.5 15.9 6.0 44 6.2 N 9 11 5 6 1012.8 - 0.0
01/05:00pm 20.2 17.2 5.8 39 7.2 N 11 17 6 9 1012.7 - 0.0
01/04:30pm 20.3 16.7 5.1 37 7.5 NNW 13 20 7 11 1012.9 - 0.0
01/04:00pm 21.0 16.7 5.4 36 7.8 NNW 17 28 9 15 1012.9 - 0.0
01/03:30pm 20.9 16.5 4.9 35 7.9 NNW 17 26 9 14 1012.8 - 0.0
01/03:00pm 20.8 16.5 5.2 36 7.8 NNW 17 22 9 12 1013.0 1012.7 0.0
01/02:30pm 20.8 16.9 5.2 36 7.8 N 15 24 8 13 1013.4 - 0.0
01/02:00pm 21.7 17.1 5.6 35 8.1 NNW 19 28 10 15 1013.6 - 0.0
01/01:30pm 21.9 17.2 5.3 34 8.3 NNW 19 28 10 15 1014.1 - 0.0
01/01:00pm 21.5 15.8 5.0 34 8.2 NW 24 33 13 18 1014.9 - 0.0
01/12:30pm 21.7 16.5 7.2 39 7.5 WNW 24 37 13 20 1015.4 - 0.0
01/12:00pm 21.6 16.6 8.1 42 7.1 WNW 24 33 13 18 1015.6 1015.4 0.0
01/11:30am 21.4 16.7 7.6 41 7.2 WNW 22 30 12 16 1015.9 - 0.0
01/11:00am 20.6 16.2 7.6 43 6.8 WNW 20 24 11 13 1016.2 - 0.0
01/10:30am 18.8 17.9 10.6 59 4.5 ENE 6 9 3 5 1016.7 - 0.0
01/10:00am 17.3 16.9 9.7 61 4.0 ENE 2 7 1 4 1017.5 - 0.0
01/09:30am 14.6 14.2 9.6 72 2.6 SSE 2 7 1 4 1018.0 - 0.0
01/09:00am 13.2 13.2 9.8 80 1.8 CALM 0 0 0 0 1018.4 1018.2 0.2
01/08:30am 11.9 11.7 10.5 91 0.7 ENE 2 6 1 3 1018.5 - 0.2
01/08:00am 8.8 8.5 8.7 99 0.0 CALM 0 4 0 2 1018.6 - 0.2
01/07:30am 7.4 6.8 7.3 99 0.0 CALM 0 0 0 0 1018.3 - 0.2
01/07:00am 5.6 4.6 5.5 99 0.0 CALM 0 0 0 0 1018.2 - 0.2
01/06:30am 4.0 2.7 3.9 99 0.0 CALM 0 0 0 0 1018.0 - 0.2
01/06:00am 4.3 3.0 4.2 99 0.0 CALM 0 0 0 0 1017.8 1017.6 0.2
01/05:30am 4.2 2.9 4.1 99 0.0 CALM 0 7 0 4 1017.3 - 0.2
01/05:00am 4.5 2.9 4.4 99 0.0 W 2 7 1 4 1017.2 - 0.2
01/04:30am 4.8 2.5 4.7 99 0.0 W 6 7 3 4 1016.7 - 0.2
01/04:00am 4.5 2.9 4.4 99 0.0 NNE 2 6 1 3 1016.6 - 0.2
01/03:30am 4.8 3.2 4.7 99 0.0 WNW 2 6 1 3 1016.6 - 0.2
01/03:00am 4.8 2.5 4.7 99 0.0 WNW 6 7 3 4 1016.7 1016.5 0.2
01/02:30am 5.4 4.3 5.3 99 0.0 CALM 0 0 0 0 1017.0 - 0.2
01/02:00am 6.1 5.2 6.0 99 0.0 CALM 0 0 0 0 1017.3 - 0.2
01/01:30am 6.2 4.5 6.1 99 0.0 W 4 7 2 4 1017.6 - 0.2
01/01:00am 7.0 6.3 6.9 99 0.0 CALM 0 0 0 0 1017.8 - 0.2
01/12:30am 6.1 5.2 6.0 99 0.0 CALM 0 0 0 0 1018.0 - 0.2
01/12:00am 6.7 4.8 6.6 99 0.0 WNW 6 7 3 4 1018.1 1017.9 0.2
 
Date/Time
EST
Temp
°C
App
Temp
°C
Dew
Point
Rel
Hum
%
Delta-T
°C
Wind Press
QNH
hPa
Press
MSL
hPa
Rain
since 9 am
mm
Dir
 
Spd
km/h
Gust
km/h
Spd
kts
Gust
kts
31/11:30pm 7.4 6.7 7.1 98 0.1 CALM 0 0 0 0 1018.1 - 0.2
31/11:00pm 7.7 7.0 7.1 96 0.3 CALM 0 0 0 0 1018.1 - 0.2
31/10:30pm 8.0 7.4 7.6 97 0.2 CALM 0 2 0 1 1018.1 - 0.2
31/10:00pm 8.6 8.2 8.3 98 0.1 CALM 0 0 0 0 1018.2 - 0.2
31/09:30pm 8.6 8.1 7.8 95 0.4 CALM 0 0 0 0 1018.2 - 0.2
31/09:00pm 9.3 8.9 8.2 93 0.5 CALM 0 0 0 0 1018.3 1018.5 0.2
31/08:30pm 9.7 9.4 8.6 93 0.5 CALM 0 0 0 0 1018.2 - 0.2
31/08:00pm 10.5 10.3 8.9 90 0.8 CALM 0 0 0 0 1018.1 - 0.2
31/07:30pm 11.2 10.3 9.1 87 1.1 NW 4 9 2 5 1017.9 - 0.2
31/07:00pm 11.8 11.6 9.0 83 1.4 CALM 0 0 0 0 1017.6 - 0.2
31/06:30pm 12.6 11.9 8.7 77 2.0 SE 2 7 1 4 1017.4 - 0.2
31/06:00pm 14.4 14.2 9.0 70 2.8 CALM 0 0 0 0 1017.3 1017.5 0.2
31/05:30pm 17.1 17.1 9.8 62 3.9 CALM 0 0 0 0 1017.1 - 0.2
31/05:00pm 18.1 17.7 9.7 58 4.5 SE 2 7 1 4 1017.1 - 0.2
31/04:30pm 18.7 16.8 9.2 54 5.0 E 9 15 5 8 1017.0 - 0.2
31/04:00pm 18.7 16.9 9.5 55 4.9 SE 9 13 5 7 1017.2 - 0.2
31/03:30pm 18.8 16.9 9.0 53 5.2 ENE 9 11 5 6 1017.3 - 0.2
31/03:00pm 19.6 19.2 9.8 53 5.3 W 2 9 1 5 1017.5 1017.7 0.2
31/02:30pm 19.1 18.3 9.6 54 5.1 NE 4 9 2 5 1017.7 - 0.2
31/02:00pm 19.0 17.7 9.2 53 5.2 ENE 6 13 3 7 1018.1 - 0.2
31/01:30pm 18.0 16.6 9.4 57 4.6 SSE 7 11 4 6 1018.5 - 0.0
31/01:00pm 17.8 16.4 9.4 58 4.4 W 7 13 4 7 1018.9 - 0.0
31/12:30pm 17.0 15.2 9.4 61 4.0 SW 9 15 5 8 1019.3 - 0.0
31/12:00pm 16.5 14.3 9.4 63 3.7 SSW 11 20 6 11 1019.6 1019.8 0.0
31/11:30am 16.4 15.4 10.3 67 3.3 SSE 6 11 3 6 1020.1 - 0.0
31/11:00am 15.6 14.7 10.8 73 2.6 SSE 6 9 3 5 1020.4 - 0.0
31/10:30am 14.7 13.7 10.3 75 2.3 E 6 9 3 5 1020.9 - 0.0
31/10:00am 14.5 12.6 10.5 77 2.1 ESE 11 13 6 7 1021.1 - 0.0
31/09:30am 14.7 14.6 10.7 77 2.1 S 2 7 1 4 1021.3 - 0.0
31/09:00am 14.2 14.1 10.8 80 1.8 NE 2 7 1 4 1021.3 1021.6 0.0
31/08:30am 13.6 13.8 11.7 88 1.0 NW 2 6 1 3 1021.4 - 0.0
31/08:00am 12.8 12.3 11.9 94 0.5 NW 6 7 3 4 1021.7 - 0.0
31/07:30am 12.3 12.9 12.0 98 0.2 CALM 0 0 0 0 1021.4 - 0.0
31/07:00am 12.0 12.6 11.8 99 0.1 CALM 0 0 0 0 1021.1 - 0.0
31/06:30am 11.9 12.4 11.7 99 0.1 CALM 0 0 0 0 1020.8 - 0.0
31/06:00am 11.9 12.4 11.7 99 0.1 CALM 0 0 0 0 1020.6 1020.8 0.0
31/05:30am 11.9 11.3 11.6 98 0.2 WNW 6 7 3 4 1020.3 - 0.0
31/05:00am 12.0 12.6 11.8 99 0.1 CALM 0 0 0 0 1020.2 - 0.0
31/04:30am 12.0 12.5 11.7 98 0.2 CALM 0 0 0 0 1020.2 - 0.0
31/04:00am 12.1 12.5 11.3 95 0.4 CALM 0 0 0 0 1020.2 - 0.0
31/03:30am 12.1 12.6 11.6 97 0.3 CALM 0 0 0 0 1020.4 - 0.0
31/03:00am 12.2 12.7 11.7 97 0.3 CALM 0 0 0 0 1020.6 1020.8 0.0
31/02:30am 12.0 12.2 11.8 99 0.1 WNW 2 6 1 3 1020.6 - 0.0
31/02:00am 12.2 12.8 12.0 99 0.1 CALM 0 0 0 0 1020.7 - 0.0
31/01:30am 12.1 12.7 11.9 99 0.1 CALM 0 0 0 0 1020.9 - 0.0
31/01:00am 12.2 11.5 12.0 99 0.1 WNW 7 7 4 4 1021.0 - 0.0
31/12:30am 12.3 11.6 12.1 99 0.1 WNW 7 7 4 4 1021.2 - 0.0
31/12:00am 12.4 12.3 12.1 98 0.2 WNW 4 6 2 3 1021.4 1021.7 0.0
 
Date/Time
EST
Temp
°C
App
Temp
°C
Dew
Point
Rel
Hum
%
Delta-T
°C
Wind Press
QNH
hPa
Press
MSL
hPa
Rain
since 9 am
mm
Dir
 
Spd
km/h
Gust
km/h
Spd
kts
Gust
kts
30/11:30pm 12.5 13.1 11.9 96 0.3 CALM 0 0 0 0 1021.6 - 0.0
30/11:00pm 12.5 13.1 11.9 96 0.3 CALM 0 0 0 0 1021.8 - 0.0
30/10:30pm 12.5 12.3 11.9 96 0.3 W 4 6 2 3 1021.9 - 0.0
30/10:00pm 12.8 12.0 11.7 93 0.6 S 7 9 4 5 1021.8 - 0.0

Other Formats:

Comma delimited format used in spreadsheet applications
http://www.bom.gov.au/fwo/IDN60801/IDN60801.95758.axf

JavaScript Object Notation format (JSON) in row-major order
http://www.bom.gov.au/fwo/IDN60801/IDN60801.95758.json